This is the latest recevied weather packets stored in our database for station/object KC5L-7. If no packets are shown the sender has not sent any weather packets the latest 1 day(s).
| Time | Temp. | Humidity | Pressure | Rain* | Wind** | Luminosity | Snow |
|---|---|---|---|---|---|---|---|
| 1778114746 | 23.89° C | 62% | 1008.9 hPa | 0 mm | - | - | - |
| 1778112946 | 24.44° C | 62% | 1008.7 hPa | 0 mm | - | - | - |
| 1778111747 | 25.56° C | 59% | 1008.2 hPa | 0 mm | - | - | - |
| 1778108780 | 27.22° C | 59% | 1007 hPa | 0 mm | - | - | - |
| 1778106980 | 28.33° C | 61% | 1006.7 hPa | 0 mm | - | - | - |
| 1778102180 | 30.56° C | 58% | 1005.9 hPa | 0 mm | - | - | - |
| 1778101581 | 30.56° C | 58% | 1005.9 hPa | 0 mm | - | - | - |
| 1778100380 | 30° C | 59% | 1006.2 hPa | 0 mm | - | - | - |
| 1778099181 | 29.44° C | 62% | 1006.5 hPa | 0 mm | - | - | - |
| 1778097380 | 29.44° C | 63% | 1007 hPa | 0 mm | - | - | - |
| 1778093780 | 28.33° C | 71% | 1007.6 hPa | 0 mm | - | - | - |
| 1778089580 | 26.67° C | 77% | 1008.5 hPa | 0 mm | - | - | - |
| 1778088981 | 26.11° C | 79% | 1008.4 hPa | 0 mm | - | - | - |
| 1778085980 | 25.56° C | 82% | 1008.8 hPa | 0 mm | - | - | - |
| 1778083581 | 25° C | 88% | 1008.5 hPa | 0 mm | - | - | - |
| 1778082380 | 24.44° C | 88% | 1008.6 hPa | 0 mm | - | - | - |
| 1778081780 | 24.44° C | 88% | 1008.4 hPa | 0 mm | - | - | - |
| 1778079981 | 24.44° C | 86% | 1008.1 hPa | 0 mm | - | - | - |
| 1778079380 | 24.44° C | 86% | 1007.9 hPa | 0 mm | - | - | - |
| 1778076981 | 24.44° C | 86% | 1007.5 hPa | 0 mm | - | - | - |
| 1778076544 | 24.44° C | 86% | 1007.3 hPa | 0 mm | - | - | - |
| 1778076380 | 24.44° C | 86% | 1007.3 hPa | 0 mm | - | - | - |
| 1778074580 | 23.89° C | 88% | 1006.8 hPa | 0 mm | - | - | - |
| 1778070380 | 23.89° C | 89% | 1006.4 hPa | 0 mm | - | - | - |
| 1778067380 | 23.89° C | 88% | 1006.4 hPa | 0 mm | - | - | - |
* Rain latest hour (hover to see other rain measurements)
** Current wind speed in m/s (hover to see current wind gust speed)